sensor_id;sensor_type;location;lat;lon;timestamp;P1;durP1;ratioP1;P2;durP2;ratioP2
2388;SDS011;1205;47.984;7.668;2023-12-07T00:00:03;12.70;;;9.60;;
2388;SDS011;1205;47.984;7.668;2023-12-07T00:02:29;13.83;;;9.13;;
2388;SDS011;1205;47.984;7.668;2023-12-07T00:04:55;12.40;;;9.17;;
2388;SDS011;1205;47.984;7.668;2023-12-07T00:07:20;14.00;;;8.93;;
2388;SDS011;1205;47.984;7.668;2023-12-07T00:09:46;13.17;;;8.73;;
2388;SDS011;1205;47.984;7.668;2023-12-07T00:12:12;13.13;;;8.97;;
2388;SDS011;1205;47.984;7.668;2023-12-07T00:14:37;11.77;;;7.97;;
2388;SDS011;1205;47.984;7.668;2023-12-07T00:17:03;10.07;;;8.10;;
2388;SDS011;1205;47.984;7.668;2023-12-07T00:19:28;8.47;;;7.03;;
2388;SDS011;1205;47.984;7.668;2023-12-07T00:21:54;8.53;;;7.43;;
2388;SDS011;1205;47.984;7.668;2023-12-07T00:24:20;9.30;;;6.73;;
2388;SDS011;1205;47.984;7.668;2023-12-07T00:26:45;8.93;;;7.30;;
2388;SDS011;1205;47.984;7.668;2023-12-07T00:29:11;9.90;;;7.27;;
2388;SDS011;1205;47.984;7.668;2023-12-07T00:31:36;9.50;;;7.50;;
2388;SDS011;1205;47.984;7.668;2023-12-07T00:34:02;11.13;;;7.80;;
2388;SDS011;1205;47.984;7.668;2023-12-07T00:36:28;11.00;;;7.57;;
2388;SDS011;1205;47.984;7.668;2023-12-07T00:38:53;8.40;;;6.80;;
2388;SDS011;1205;47.984;7.668;2023-12-07T00:41:19;6.93;;;6.23;;
2388;SDS011;1205;47.984;7.668;2023-12-07T00:43:44;7.33;;;6.37;;
2388;SDS011;1205;47.984;7.668;2023-12-07T00:46:10;9.60;;;6.57;;
2388;SDS011;1205;47.984;7.668;2023-12-07T00:48:36;8.67;;;6.77;;
2388;SDS011;1205;47.984;7.668;2023-12-07T00:51:01;8.40;;;6.77;;
2388;SDS011;1205;47.984;7.668;2023-12-07T00:53:27;6.63;;;6.00;;
2388;SDS011;1205;47.984;7.668;2023-12-07T00:55:53;10.23;;;7.00;;
2388;SDS011;1205;47.984;7.668;2023-12-07T00:58:18;6.70;;;5.97;;
2388;SDS011;1205;47.984;7.668;2023-12-07T01:00:44;10.57;;;6.97;;
2388;SDS011;1205;47.984;7.668;2023-12-07T01:03:09;7.47;;;6.27;;
2388;SDS011;1205;47.984;7.668;2023-12-07T01:05:35;8.20;;;6.30;;
2388;SDS011;1205;47.984;7.668;2023-12-07T01:08:01;11.47;;;6.20;;
2388;SDS011;1205;47.984;7.668;2023-12-07T01:10:26;10.83;;;7.73;;
2388;SDS011;1205;47.984;7.668;2023-12-07T01:12:52;11.30;;;7.60;;
2388;SDS011;1205;47.984;7.668;2023-12-07T01:15:17;12.13;;;8.70;;
2388;SDS011;1205;47.984;7.668;2023-12-07T01:17:43;10.00;;;8.27;;
2388;SDS011;1205;47.984;7.668;2023-12-07T01:20:08;9.00;;;7.50;;
2388;SDS011;1205;47.984;7.668;2023-12-07T01:22:40;7.67;;;6.50;;
2388;SDS011;1205;47.984;7.668;2023-12-07T01:25:06;7.20;;;6.30;;
2388;SDS011;1205;47.984;7.668;2023-12-07T01:27:33;6.43;;;5.77;;
2388;SDS011;1205;47.984;7.668;2023-12-07T01:29:59;6.13;;;5.40;;
2388;SDS011;1205;47.984;7.668;2023-12-07T01:32:24;8.10;;;5.90;;
2388;SDS011;1205;47.984;7.668;2023-12-07T01:34:50;9.80;;;6.87;;
2388;SDS011;1205;47.984;7.668;2023-12-07T01:37:15;8.80;;;6.93;;
2388;SDS011;1205;47.984;7.668;2023-12-07T01:39:41;11.13;;;6.97;;
2388;SDS011;1205;47.984;7.668;2023-12-07T01:42:08;13.33;;;8.70;;
2388;SDS011;1205;47.984;7.668;2023-12-07T01:44:34;10.70;;;7.87;;
2388;SDS011;1205;47.984;7.668;2023-12-07T01:46:59;10.53;;;8.10;;
2388;SDS011;1205;47.984;7.668;2023-12-07T01:49:26;9.60;;;7.87;;
2388;SDS011;1205;47.984;7.668;2023-12-07T01:51:53;10.30;;;8.17;;
2388;SDS011;1205;47.984;7.668;2023-12-07T01:54:19;11.57;;;7.87;;
2388;SDS011;1205;47.984;7.668;2023-12-07T01:56:45;9.43;;;6.97;;
2388;SDS011;1205;47.984;7.668;2023-12-07T01:59:11;11.70;;;7.93;;
2388;SDS011;1205;47.984;7.668;2023-12-07T02:01:36;13.43;;;9.50;;
2388;SDS011;1205;47.984;7.668;2023-12-07T02:04:02;10.33;;;7.40;;
2388;SDS011;1205;47.984;7.668;2023-12-07T02:06:28;11.17;;;8.17;;
2388;SDS011;1205;47.984;7.668;2023-12-07T02:08:53;11.70;;;9.20;;
2388;SDS011;1205;47.984;7.668;2023-12-07T02:11:19;12.43;;;7.50;;
2388;SDS011;1205;47.984;7.668;2023-12-07T02:13:44;8.10;;;7.03;;
2388;SDS011;1205;47.984;7.668;2023-12-07T02:16:13;16.70;;;7.70;;
2388;SDS011;1205;47.984;7.668;2023-12-07T02:18:51;10.20;;;6.90;;
2388;SDS011;1205;47.984;7.668;2023-12-07T02:21:38;10.07;;;7.40;;
2388;SDS011;1205;47.984;7.668;2023-12-07T02:24:12;8.83;;;6.70;;
2388;SDS011;1205;47.984;7.668;2023-12-07T02:26:45;10.67;;;7.40;;
2388;SDS011;1205;47.984;7.668;2023-12-07T02:29:11;6.80;;;6.20;;
2388;SDS011;1205;47.984;7.668;2023-12-07T02:31:36;9.63;;;7.77;;
2388;SDS011;1205;47.984;7.668;2023-12-07T02:34:02;11.17;;;6.90;;
2388;SDS011;1205;47.984;7.668;2023-12-07T02:36:28;9.03;;;7.07;;
2388;SDS011;1205;47.984;7.668;2023-12-07T02:38:56;9.63;;;7.20;;
2388;SDS011;1205;47.984;7.668;2023-12-07T02:41:23;7.67;;;6.87;;
2388;SDS011;1205;47.984;7.668;2023-12-07T02:43:50;10.63;;;7.83;;
2388;SDS011;1205;47.984;7.668;2023-12-07T02:46:16;9.70;;;7.10;;
2388;SDS011;1205;47.984;7.668;2023-12-07T02:48:43;8.13;;;7.10;;
2388;SDS011;1205;47.984;7.668;2023-12-07T02:51:08;8.37;;;6.43;;
2388;SDS011;1205;47.984;7.668;2023-12-07T02:53:34;7.67;;;6.97;;
2388;SDS011;1205;47.984;7.668;2023-12-07T02:55:59;6.70;;;5.97;;
2388;SDS011;1205;47.984;7.668;2023-12-07T02:58:25;6.70;;;6.10;;
2388;SDS011;1205;47.984;7.668;2023-12-07T03:00:50;7.30;;;5.90;;
2388;SDS011;1205;47.984;7.668;2023-12-07T03:03:16;9.03;;;6.70;;
2388;SDS011;1205;47.984;7.668;2023-12-07T03:05:41;8.87;;;6.77;;
2388;SDS011;1205;47.984;7.668;2023-12-07T03:08:07;10.70;;;7.50;;
2388;SDS011;1205;47.984;7.668;2023-12-07T03:10:33;7.93;;;6.83;;
2388;SDS011;1205;47.984;7.668;2023-12-07T03:12:58;11.70;;;8.00;;
2388;SDS011;1205;47.984;7.668;2023-12-07T03:15:24;11.77;;;8.23;;
2388;SDS011;1205;47.984;7.668;2023-12-07T03:17:50;9.27;;;7.57;;
2388;SDS011;1205;47.984;7.668;2023-12-07T03:20:15;8.93;;;7.33;;
2388;SDS011;1205;47.984;7.668;2023-12-07T03:22:41;9.80;;;7.43;;
2388;SDS011;1205;47.984;7.668;2023-12-07T03:25:07;10.73;;;7.80;;
2388;SDS011;1205;47.984;7.668;2023-12-07T03:27:33;8.77;;;6.83;;
2388;SDS011;1205;47.984;7.668;2023-12-07T03:29:58;9.40;;;7.00;;
2388;SDS011;1205;47.984;7.668;2023-12-07T03:32:24;9.90;;;7.50;;
2388;SDS011;1205;47.984;7.668;2023-12-07T03:34:49;6.90;;;6.23;;
2388;SDS011;1205;47.984;7.668;2023-12-07T03:37:15;7.57;;;6.63;;
2388;SDS011;1205;47.984;7.668;2023-12-07T03:39:40;9.73;;;6.40;;
2388;SDS011;1205;47.984;7.668;2023-12-07T03:42:06;14.00;;;6.60;;
2388;SDS011;1205;47.984;7.668;2023-12-07T03:44:32;9.37;;;6.33;;
2388;SDS011;1205;47.984;7.668;2023-12-07T03:46:57;8.77;;;6.77;;
2388;SDS011;1205;47.984;7.668;2023-12-07T03:49:23;5.83;;;5.27;;
2388;SDS011;1205;47.984;7.668;2023-12-07T03:51:48;7.53;;;6.27;;
2388;SDS011;1205;47.984;7.668;2023-12-07T03:54:14;7.40;;;6.30;;
2388;SDS011;1205;47.984;7.668;2023-12-07T03:56:39;7.93;;;6.47;;
2388;SDS011;1205;47.984;7.668;2023-12-07T03:59:05;6.90;;;6.20;;
2388;SDS011;1205;47.984;7.668;2023-12-07T04:01:31;6.47;;;5.77;;
2388;SDS011;1205;47.984;7.668;2023-12-07T04:03:57;8.63;;;6.43;;
2388;SDS011;1205;47.984;7.668;2023-12-07T04:06:23;10.70;;;7.10;;
2388;SDS011;1205;47.984;7.668;2023-12-07T04:08:50;9.03;;;6.87;;
2388;SDS011;1205;47.984;7.668;2023-12-07T04:11:15;6.30;;;5.63;;
2388;SDS011;1205;47.984;7.668;2023-12-07T04:13:42;7.40;;;5.83;;
2388;SDS011;1205;47.984;7.668;2023-12-07T04:16:08;6.60;;;5.63;;
2388;SDS011;1205;47.984;7.668;2023-12-07T04:18:34;8.07;;;6.20;;
2388;SDS011;1205;47.984;7.668;2023-12-07T04:21:00;7.77;;;5.00;;
2388;SDS011;1205;47.984;7.668;2023-12-07T04:23:26;6.00;;;5.40;;
2388;SDS011;1205;47.984;7.668;2023-12-07T04:25:51;6.60;;;5.90;;
2388;SDS011;1205;47.984;7.668;2023-12-07T04:28:17;7.10;;;6.07;;
2388;SDS011;1205;47.984;7.668;2023-12-07T04:30:43;6.53;;;5.60;;
2388;SDS011;1205;47.984;7.668;2023-12-07T04:33:08;7.63;;;6.50;;
2388;SDS011;1205;47.984;7.668;2023-12-07T04:35:34;9.10;;;6.47;;
2388;SDS011;1205;47.984;7.668;2023-12-07T04:38:00;6.80;;;5.73;;
2388;SDS011;1205;47.984;7.668;2023-12-07T04:40:25;9.40;;;5.70;;
2388;SDS011;1205;47.984;7.668;2023-12-07T04:42:51;7.43;;;5.87;;
2388;SDS011;1205;47.984;7.668;2023-12-07T04:45:17;6.30;;;5.70;;
2388;SDS011;1205;47.984;7.668;2023-12-07T04:47:42;9.53;;;6.03;;
2388;SDS011;1205;47.984;7.668;2023-12-07T04:50:08;7.50;;;6.37;;
2388;SDS011;1205;47.984;7.668;2023-12-07T04:52:34;8.10;;;6.73;;
2388;SDS011;1205;47.984;7.668;2023-12-07T04:55:00;15.90;;;7.33;;
2388;SDS011;1205;47.984;7.668;2023-12-07T04:57:26;24.70;;;7.00;;
2388;SDS011;1205;47.984;7.668;2023-12-07T04:59:52;10.40;;;6.23;;
2388;SDS011;1205;47.984;7.668;2023-12-07T05:02:17;12.07;;;6.47;;
2388;SDS011;1205;47.984;7.668;2023-12-07T05:04:43;14.60;;;6.20;;
2388;SDS011;1205;47.984;7.668;2023-12-07T05:07:10;21.50;;;6.87;;
2388;SDS011;1205;47.984;7.668;2023-12-07T05:09:36;9.37;;;6.73;;
2388;SDS011;1205;47.984;7.668;2023-12-07T05:12:03;10.23;;;6.70;;
2388;SDS011;1205;47.984;7.668;2023-12-07T05:14:30;9.03;;;7.20;;
2388;SDS011;1205;47.984;7.668;2023-12-07T05:16:56;9.67;;;7.07;;
2388;SDS011;1205;47.984;7.668;2023-12-07T05:19:22;10.87;;;8.07;;
2388;SDS011;1205;47.984;7.668;2023-12-07T05:21:48;14.73;;;10.93;;
2388;SDS011;1205;47.984;7.668;2023-12-07T05:24:14;9.87;;;8.07;;
2388;SDS011;1205;47.984;7.668;2023-12-07T05:26:40;22.67;;;12.20;;
2388;SDS011;1205;47.984;7.668;2023-12-07T05:29:06;23.10;;;12.40;;
2388;SDS011;1205;47.984;7.668;2023-12-07T05:31:32;18.07;;;10.10;;
2388;SDS011;1205;47.984;7.668;2023-12-07T05:33:58;18.27;;;8.87;;
2388;SDS011;1205;47.984;7.668;2023-12-07T05:36:23;18.20;;;9.70;;
2388;SDS011;1205;47.984;7.668;2023-12-07T05:38:49;16.23;;;9.77;;
2388;SDS011;1205;47.984;7.668;2023-12-07T05:41:14;14.10;;;8.90;;
2388;SDS011;1205;47.984;7.668;2023-12-07T05:43:40;12.07;;;7.60;;
2388;SDS011;1205;47.984;7.668;2023-12-07T05:46:07;8.70;;;7.10;;
2388;SDS011;1205;47.984;7.668;2023-12-07T05:48:32;10.23;;;7.57;;
2388;SDS011;1205;47.984;7.668;2023-12-07T05:50:58;11.50;;;8.23;;
2388;SDS011;1205;47.984;7.668;2023-12-07T05:53:24;22.13;;;11.47;;
2388;SDS011;1205;47.984;7.668;2023-12-07T05:55:50;21.40;;;11.40;;
2388;SDS011;1205;47.984;7.668;2023-12-07T05:58:15;12.57;;;7.50;;
2388;SDS011;1205;47.984;7.668;2023-12-07T06:00:43;9.60;;;7.40;;
2388;SDS011;1205;47.984;7.668;2023-12-07T06:03:09;7.80;;;6.40;;
2388;SDS011;1205;47.984;7.668;2023-12-07T06:05:38;7.73;;;5.70;;
2388;SDS011;1205;47.984;7.668;2023-12-07T06:08:03;10.70;;;5.90;;
2388;SDS011;1205;47.984;7.668;2023-12-07T06:10:29;14.47;;;6.77;;
2388;SDS011;1205;47.984;7.668;2023-12-07T06:12:55;14.70;;;6.50;;
2388;SDS011;1205;47.984;7.668;2023-12-07T06:15:23;9.87;;;6.00;;
2388;SDS011;1205;47.984;7.668;2023-12-07T06:17:49;12.37;;;6.93;;
2388;SDS011;1205;47.984;7.668;2023-12-07T06:20:14;8.40;;;6.20;;
2388;SDS011;1205;47.984;7.668;2023-12-07T06:22:40;9.63;;;5.90;;
2388;SDS011;1205;47.984;7.668;2023-12-07T06:25:06;8.40;;;6.67;;
2388;SDS011;1205;47.984;7.668;2023-12-07T06:27:33;16.93;;;7.07;;
2388;SDS011;1205;47.984;7.668;2023-12-07T06:30:07;10.40;;;6.47;;
2388;SDS011;1205;47.984;7.668;2023-12-07T06:32:33;9.20;;;6.10;;
2388;SDS011;1205;47.984;7.668;2023-12-07T06:34:59;14.13;;;7.17;;
2388;SDS011;1205;47.984;7.668;2023-12-07T06:37:25;7.87;;;6.00;;
2388;SDS011;1205;47.984;7.668;2023-12-07T06:39:51;14.40;;;7.63;;
2388;SDS011;1205;47.984;7.668;2023-12-07T06:42:20;11.00;;;7.00;;
2388;SDS011;1205;47.984;7.668;2023-12-07T06:44:48;9.03;;;7.10;;
2388;SDS011;1205;47.984;7.668;2023-12-07T06:47:14;12.23;;;7.50;;
2388;SDS011;1205;47.984;7.668;2023-12-07T06:49:41;12.10;;;7.20;;
2388;SDS011;1205;47.984;7.668;2023-12-07T06:52:06;9.50;;;7.30;;
2388;SDS011;1205;47.984;7.668;2023-12-07T06:54:33;9.50;;;6.87;;
2388;SDS011;1205;47.984;7.668;2023-12-07T06:56:59;6.00;;;5.40;;
2388;SDS011;1205;47.984;7.668;2023-12-07T06:59:25;6.27;;;5.13;;
2388;SDS011;1205;47.984;7.668;2023-12-07T07:01:53;5.50;;;5.00;;
2388;SDS011;1205;47.984;7.668;2023-12-07T07:04:23;6.40;;;5.43;;
2388;SDS011;1205;47.984;7.668;2023-12-07T07:06:49;7.23;;;5.20;;
2388;SDS011;1205;47.984;7.668;2023-12-07T07:09:15;9.07;;;5.90;;
2388;SDS011;1205;47.984;7.668;2023-12-07T07:11:40;7.00;;;6.00;;
2388;SDS011;1205;47.984;7.668;2023-12-07T07:14:06;10.30;;;7.87;;
2388;SDS011;1205;47.984;7.668;2023-12-07T07:16:32;14.20;;;6.20;;
2388;SDS011;1205;47.984;7.668;2023-12-07T07:18:58;8.60;;;5.60;;
2388;SDS011;1205;47.984;7.668;2023-12-07T07:21:23;6.83;;;5.50;;
2388;SDS011;1205;47.984;7.668;2023-12-07T07:23:49;7.17;;;5.37;;
2388;SDS011;1205;47.984;7.668;2023-12-07T07:26:14;10.67;;;6.20;;
2388;SDS011;1205;47.984;7.668;2023-12-07T07:28:45;7.97;;;6.57;;
2388;SDS011;1205;47.984;7.668;2023-12-07T07:31:10;26.60;;;9.80;;
2388;SDS011;1205;47.984;7.668;2023-12-07T07:33:36;52.80;;;12.00;;
2388;SDS011;1205;47.984;7.668;2023-12-07T07:36:02;17.23;;;10.10;;
2388;SDS011;1205;47.984;7.668;2023-12-07T07:38:27;23.30;;;12.30;;
2388;SDS011;1205;47.984;7.668;2023-12-07T07:40:53;26.60;;;12.53;;
2388;SDS011;1205;47.984;7.668;2023-12-07T07:43:19;29.00;;;12.20;;
2388;SDS011;1205;47.984;7.668;2023-12-07T07:45:44;30.30;;;12.70;;
2388;SDS011;1205;47.984;7.668;2023-12-07T07:48:10;22.70;;;11.80;;
2388;SDS011;1205;47.984;7.668;2023-12-07T07:50:37;28.40;;;12.30;;
2388;SDS011;1205;47.984;7.668;2023-12-07T07:53:03;25.33;;;12.47;;
2388;SDS011;1205;47.984;7.668;2023-12-07T07:55:29;38.50;;;13.40;;
2388;SDS011;1205;47.984;7.668;2023-12-07T07:57:55;55.03;;;14.37;;
2388;SDS011;1205;47.984;7.668;2023-12-07T08:00:20;41.07;;;15.47;;
2388;SDS011;1205;47.984;7.668;2023-12-07T08:02:46;75.47;;;16.37;;
2388;SDS011;1205;47.984;7.668;2023-12-07T08:05:12;69.47;;;15.17;;
2388;SDS011;1205;47.984;7.668;2023-12-07T08:07:38;106.73;;;19.93;;
2388;SDS011;1205;47.984;7.668;2023-12-07T08:10:05;82.60;;;20.03;;
2388;SDS011;1205;47.984;7.668;2023-12-07T08:12:31;53.50;;;15.30;;
2388;SDS011;1205;47.984;7.668;2023-12-07T08:14:58;39.83;;;16.67;;
2388;SDS011;1205;47.984;7.668;2023-12-07T08:17:23;94.87;;;30.03;;
2388;SDS011;1205;47.984;7.668;2023-12-07T08:19:51;48.97;;;20.00;;
2388;SDS011;1205;47.984;7.668;2023-12-07T08:22:17;85.63;;;30.10;;
2388;SDS011;1205;47.984;7.668;2023-12-07T08:24:42;65.00;;;26.27;;
2388;SDS011;1205;47.984;7.668;2023-12-07T08:27:08;60.00;;;25.07;;
2388;SDS011;1205;47.984;7.668;2023-12-07T08:29:34;94.50;;;38.97;;
2388;SDS011;1205;47.984;7.668;2023-12-07T08:32:01;88.83;;;35.50;;
2388;SDS011;1205;47.984;7.668;2023-12-07T08:34:27;72.83;;;30.10;;
2388;SDS011;1205;47.984;7.668;2023-12-07T08:36:53;55.17;;;25.93;;
2388;SDS011;1205;47.984;7.668;2023-12-07T08:39:18;52.53;;;18.30;;
2388;SDS011;1205;47.984;7.668;2023-12-07T08:41:44;73.57;;;16.07;;
2388;SDS011;1205;47.984;7.668;2023-12-07T08:44:09;28.60;;;14.30;;
2388;SDS011;1205;47.984;7.668;2023-12-07T08:46:35;41.73;;;20.07;;
2388;SDS011;1205;47.984;7.668;2023-12-07T08:49:01;33.20;;;19.13;;
2388;SDS011;1205;47.984;7.668;2023-12-07T08:51:27;34.33;;;18.57;;
2388;SDS011;1205;47.984;7.668;2023-12-07T08:53:56;26.47;;;15.13;;
2388;SDS011;1205;47.984;7.668;2023-12-07T08:56:21;21.03;;;12.87;;
2388;SDS011;1205;47.984;7.668;2023-12-07T08:58:47;13.93;;;9.43;;
2388;SDS011;1205;47.984;7.668;2023-12-07T09:01:12;22.20;;;12.43;;
2388;SDS011;1205;47.984;7.668;2023-12-07T09:03:38;14.90;;;10.33;;
2388;SDS011;1205;47.984;7.668;2023-12-07T09:06:04;15.10;;;10.67;;
2388;SDS011;1205;47.984;7.668;2023-12-07T09:08:30;16.90;;;11.80;;
2388;SDS011;1205;47.984;7.668;2023-12-07T09:10:56;17.30;;;12.57;;
2388;SDS011;1205;47.984;7.668;2023-12-07T09:13:22;23.00;;;13.50;;
2388;SDS011;1205;47.984;7.668;2023-12-07T09:15:47;20.03;;;12.83;;
2388;SDS011;1205;47.984;7.668;2023-12-07T09:18:13;20.33;;;13.00;;
2388;SDS011;1205;47.984;7.668;2023-12-07T09:20:39;22.13;;;13.00;;
2388;SDS011;1205;47.984;7.668;2023-12-07T09:23:10;23.07;;;13.40;;
2388;SDS011;1205;47.984;7.668;2023-12-07T09:25:37;27.63;;;13.17;;
2388;SDS011;1205;47.984;7.668;2023-12-07T09:28:03;21.80;;;12.33;;
2388;SDS011;1205;47.984;7.668;2023-12-07T09:30:29;19.70;;;12.73;;
2388;SDS011;1205;47.984;7.668;2023-12-07T09:32:55;32.30;;;16.10;;
2388;SDS011;1205;47.984;7.668;2023-12-07T09:35:20;27.40;;;15.50;;
2388;SDS011;1205;47.984;7.668;2023-12-07T09:37:46;33.30;;;15.77;;
2388;SDS011;1205;47.984;7.668;2023-12-07T09:40:22;23.70;;;14.70;;
2388;SDS011;1205;47.984;7.668;2023-12-07T09:42:49;27.00;;;15.60;;
2388;SDS011;1205;47.984;7.668;2023-12-07T09:45:15;26.50;;;16.70;;
2388;SDS011;1205;47.984;7.668;2023-12-07T09:47:43;31.07;;;16.93;;
2388;SDS011;1205;47.984;7.668;2023-12-07T09:50:13;28.10;;;16.40;;
2388;SDS011;1205;47.984;7.668;2023-12-07T09:52:43;28.50;;;15.03;;
2388;SDS011;1205;47.984;7.668;2023-12-07T09:55:08;26.07;;;15.73;;
2388;SDS011;1205;47.984;7.668;2023-12-07T09:57:34;27.33;;;15.57;;
2388;SDS011;1205;47.984;7.668;2023-12-07T10:00:02;25.77;;;15.43;;
2388;SDS011;1205;47.984;7.668;2023-12-07T10:02:29;28.50;;;16.27;;
2388;SDS011;1205;47.984;7.668;2023-12-07T10:07:50;42.27;;;20.70;;
2388;SDS011;1205;47.984;7.668;2023-12-07T10:10:16;44.33;;;22.27;;
2388;SDS011;1205;47.984;7.668;2023-12-07T10:15:24;39.80;;;18.20;;
2388;SDS011;1205;47.984;7.668;2023-12-07T10:17:55;29.23;;;16.93;;
2388;SDS011;1205;47.984;7.668;2023-12-07T10:20:22;28.20;;;16.20;;
2388;SDS011;1205;47.984;7.668;2023-12-07T10:23:10;32.13;;;17.30;;
2388;SDS011;1205;47.984;7.668;2023-12-07T10:25:39;26.23;;;16.93;;
2388;SDS011;1205;47.984;7.668;2023-12-07T10:28:09;26.93;;;16.33;;
2388;SDS011;1205;47.984;7.668;2023-12-07T10:30:37;26.50;;;16.63;;
2388;SDS011;1205;47.984;7.668;2023-12-07T10:33:07;35.10;;;19.67;;
2388;SDS011;1205;47.984;7.668;2023-12-07T10:35:32;29.90;;;15.73;;
2388;SDS011;1205;47.984;7.668;2023-12-07T10:37:58;22.50;;;15.00;;
2388;SDS011;1205;47.984;7.668;2023-12-07T10:40:24;25.57;;;16.00;;
2388;SDS011;1205;47.984;7.668;2023-12-07T10:42:51;25.07;;;15.00;;
2388;SDS011;1205;47.984;7.668;2023-12-07T10:45:22;33.50;;;20.93;;
2388;SDS011;1205;47.984;7.668;2023-12-07T10:47:50;26.20;;;16.47;;
2388;SDS011;1205;47.984;7.668;2023-12-07T10:50:19;21.67;;;12.73;;
2388;SDS011;1205;47.984;7.668;2023-12-07T10:52:48;21.53;;;13.60;;
2388;SDS011;1205;47.984;7.668;2023-12-07T10:55:26;17.90;;;11.50;;
2388;SDS011;1205;47.984;7.668;2023-12-07T10:57:55;16.40;;;10.67;;
2388;SDS011;1205;47.984;7.668;2023-12-07T11:00:21;18.03;;;11.47;;
2388;SDS011;1205;47.984;7.668;2023-12-07T11:02:52;16.00;;;11.03;;
2388;SDS011;1205;47.984;7.668;2023-12-07T11:05:18;17.10;;;10.70;;
2388;SDS011;1205;47.984;7.668;2023-12-07T11:07:50;15.70;;;11.13;;
2388;SDS011;1205;47.984;7.668;2023-12-07T11:10:34;16.30;;;11.30;;
2388;SDS011;1205;47.984;7.668;2023-12-07T11:15:42;14.43;;;9.80;;
2388;SDS011;1205;47.984;7.668;2023-12-07T11:18:08;17.87;;;11.23;;
2388;SDS011;1205;47.984;7.668;2023-12-07T11:20:40;17.30;;;10.77;;
2388;SDS011;1205;47.984;7.668;2023-12-07T11:23:07;19.33;;;12.50;;
2388;SDS011;1205;47.984;7.668;2023-12-07T11:25:33;20.97;;;12.90;;
2388;SDS011;1205;47.984;7.668;2023-12-07T11:28:00;19.10;;;12.27;;
2388;SDS011;1205;47.984;7.668;2023-12-07T11:30:27;18.70;;;11.30;;
2388;SDS011;1205;47.984;7.668;2023-12-07T11:32:55;14.00;;;10.00;;
2388;SDS011;1205;47.984;7.668;2023-12-07T11:35:20;17.43;;;10.43;;
2388;SDS011;1205;47.984;7.668;2023-12-07T11:40:37;12.53;;;9.03;;
2388;SDS011;1205;47.984;7.668;2023-12-07T11:43:07;13.43;;;9.67;;
2388;SDS011;1205;47.984;7.668;2023-12-07T11:45:46;12.73;;;8.87;;
2388;SDS011;1205;47.984;7.668;2023-12-07T11:48:18;11.90;;;8.70;;
2388;SDS011;1205;47.984;7.668;2023-12-07T11:51:00;10.97;;;8.83;;
2388;SDS011;1205;47.984;7.668;2023-12-07T11:53:27;12.90;;;9.70;;
2388;SDS011;1205;47.984;7.668;2023-12-07T11:55:58;14.33;;;9.90;;
2388;SDS011;1205;47.984;7.668;2023-12-07T11:58:27;16.50;;;9.47;;
2388;SDS011;1205;47.984;7.668;2023-12-07T12:00:54;17.73;;;10.80;;
2388;SDS011;1205;47.984;7.668;2023-12-07T12:03:21;18.17;;;10.67;;
2388;SDS011;1205;47.984;7.668;2023-12-07T12:05:47;19.10;;;10.60;;
2388;SDS011;1205;47.984;7.668;2023-12-07T12:08:13;19.10;;;10.77;;
2388;SDS011;1205;47.984;7.668;2023-12-07T12:10:39;14.63;;;9.73;;
2388;SDS011;1205;47.984;7.668;2023-12-07T12:13:06;19.03;;;11.60;;
2388;SDS011;1205;47.984;7.668;2023-12-07T12:15:31;36.80;;;21.40;;
2388;SDS011;1205;47.984;7.668;2023-12-07T12:17:57;36.83;;;21.10;;
2388;SDS011;1205;47.984;7.668;2023-12-07T12:20:24;25.77;;;16.57;;
2388;SDS011;1205;47.984;7.668;2023-12-07T12:22:50;16.27;;;11.50;;
2388;SDS011;1205;47.984;7.668;2023-12-07T12:25:20;18.40;;;12.97;;
2388;SDS011;1205;47.984;7.668;2023-12-07T12:27:49;23.27;;;11.70;;
2388;SDS011;1205;47.984;7.668;2023-12-07T12:30:15;17.20;;;12.17;;
2388;SDS011;1205;47.984;7.668;2023-12-07T12:32:45;17.57;;;12.73;;
2388;SDS011;1205;47.984;7.668;2023-12-07T12:35:12;14.50;;;11.10;;
2388;SDS011;1205;47.984;7.668;2023-12-07T12:37:39;14.87;;;11.70;;
2388;SDS011;1205;47.984;7.668;2023-12-07T12:40:10;16.07;;;10.90;;
2388;SDS011;1205;47.984;7.668;2023-12-07T12:42:36;20.10;;;13.23;;
2388;SDS011;1205;47.984;7.668;2023-12-07T12:45:05;16.77;;;11.20;;
2388;SDS011;1205;47.984;7.668;2023-12-07T12:47:33;13.77;;;10.30;;
2388;SDS011;1205;47.984;7.668;2023-12-07T12:50:00;20.90;;;11.20;;
2388;SDS011;1205;47.984;7.668;2023-12-07T12:52:29;17.63;;;12.07;;
2388;SDS011;1205;47.984;7.668;2023-12-07T12:54:55;19.13;;;12.70;;
2388;SDS011;1205;47.984;7.668;2023-12-07T12:57:21;18.00;;;11.77;;
2388;SDS011;1205;47.984;7.668;2023-12-07T12:59:47;17.83;;;12.53;;
2388;SDS011;1205;47.984;7.668;2023-12-07T13:02:13;18.10;;;11.67;;
2388;SDS011;1205;47.984;7.668;2023-12-07T13:04:39;16.50;;;11.50;;
2388;SDS011;1205;47.984;7.668;2023-12-07T13:07:09;15.63;;;10.17;;
2388;SDS011;1205;47.984;7.668;2023-12-07T13:09:34;14.50;;;11.10;;
2388;SDS011;1205;47.984;7.668;2023-12-07T13:12:00;21.20;;;12.53;;
2388;SDS011;1205;47.984;7.668;2023-12-07T13:14:25;25.97;;;14.40;;
2388;SDS011;1205;47.984;7.668;2023-12-07T13:16:52;18.50;;;13.20;;
2388;SDS011;1205;47.984;7.668;2023-12-07T13:19:18;17.20;;;12.90;;
2388;SDS011;1205;47.984;7.668;2023-12-07T13:21:45;22.00;;;13.97;;
2388;SDS011;1205;47.984;7.668;2023-12-07T13:24:10;18.60;;;11.80;;
2388;SDS011;1205;47.984;7.668;2023-12-07T13:26:37;21.50;;;13.03;;
2388;SDS011;1205;47.984;7.668;2023-12-07T13:29:06;20.47;;;12.77;;
2388;SDS011;1205;47.984;7.668;2023-12-07T13:31:32;19.37;;;12.00;;
2388;SDS011;1205;47.984;7.668;2023-12-07T13:33:59;16.80;;;11.10;;
2388;SDS011;1205;47.984;7.668;2023-12-07T13:36:25;15.70;;;11.30;;
2388;SDS011;1205;47.984;7.668;2023-12-07T13:38:53;15.97;;;11.40;;
2388;SDS011;1205;47.984;7.668;2023-12-07T13:41:19;18.77;;;11.80;;
2388;SDS011;1205;47.984;7.668;2023-12-07T13:43:45;18.97;;;12.27;;
2388;SDS011;1205;47.984;7.668;2023-12-07T13:46:13;14.30;;;11.20;;
2388;SDS011;1205;47.984;7.668;2023-12-07T13:48:39;16.23;;;11.60;;
2388;SDS011;1205;47.984;7.668;2023-12-07T13:51:04;16.80;;;11.30;;
2388;SDS011;1205;47.984;7.668;2023-12-07T13:53:31;25.50;;;11.73;;
2388;SDS011;1205;47.984;7.668;2023-12-07T13:55:56;20.20;;;11.67;;
2388;SDS011;1205;47.984;7.668;2023-12-07T13:58:22;37.83;;;16.60;;
2388;SDS011;1205;47.984;7.668;2023-12-07T14:00:47;31.63;;;15.23;;
2388;SDS011;1205;47.984;7.668;2023-12-07T14:03:13;23.10;;;12.93;;
2388;SDS011;1205;47.984;7.668;2023-12-07T14:05:39;27.97;;;13.97;;
2388;SDS011;1205;47.984;7.668;2023-12-07T14:08:04;20.60;;;11.73;;
2388;SDS011;1205;47.984;7.668;2023-12-07T14:10:31;21.67;;;12.93;;
2388;SDS011;1205;47.984;7.668;2023-12-07T14:12:57;22.60;;;13.50;;
2388;SDS011;1205;47.984;7.668;2023-12-07T14:15:22;26.33;;;13.30;;
2388;SDS011;1205;47.984;7.668;2023-12-07T14:17:48;22.10;;;13.00;;
2388;SDS011;1205;47.984;7.668;2023-12-07T14:20:13;19.30;;;11.83;;
2388;SDS011;1205;47.984;7.668;2023-12-07T14:22:39;17.70;;;11.40;;
2388;SDS011;1205;47.984;7.668;2023-12-07T14:25:05;25.47;;;14.33;;
2388;SDS011;1205;47.984;7.668;2023-12-07T14:27:31;31.27;;;15.53;;
2388;SDS011;1205;47.984;7.668;2023-12-07T14:29:56;16.60;;;11.60;;
2388;SDS011;1205;47.984;7.668;2023-12-07T14:32:22;25.03;;;14.87;;
2388;SDS011;1205;47.984;7.668;2023-12-07T14:34:48;21.23;;;12.37;;
2388;SDS011;1205;47.984;7.668;2023-12-07T14:37:13;18.60;;;12.17;;
2388;SDS011;1205;47.984;7.668;2023-12-07T14:39:39;20.20;;;12.43;;
2388;SDS011;1205;47.984;7.668;2023-12-07T14:42:05;17.87;;;12.20;;
2388;SDS011;1205;47.984;7.668;2023-12-07T14:44:31;23.13;;;11.93;;
2388;SDS011;1205;47.984;7.668;2023-12-07T14:46:58;21.40;;;13.53;;
2388;SDS011;1205;47.984;7.668;2023-12-07T14:49:24;20.73;;;12.60;;
2388;SDS011;1205;47.984;7.668;2023-12-07T14:51:50;32.40;;;12.70;;
2388;SDS011;1205;47.984;7.668;2023-12-07T14:54:16;19.67;;;12.47;;
2388;SDS011;1205;47.984;7.668;2023-12-07T14:56:42;22.33;;;12.87;;
2388;SDS011;1205;47.984;7.668;2023-12-07T14:59:09;19.20;;;11.50;;
2388;SDS011;1205;47.984;7.668;2023-12-07T15:01:38;21.50;;;12.80;;
2388;SDS011;1205;47.984;7.668;2023-12-07T15:04:04;20.70;;;13.43;;